Time;durP1;ratioP1;P1;durP2;ratioP2;P2;SDS_P1;SDS_P2;PMS_P1;PMS_P2;Temp;Humidity;BMP_temperature;BMP_pressure;BME280_temperature;BME280_humidity;BME280_pressure;Samples;Min_cycle;Max_cycle;Signal;HPM_P1;HPM_P2
2022/03/07 00:01:37;;;;;;;16.27;8.50;;;2.40;99.90;;;;;;5050616;28;20025;-56
2022/03/07 00:04:03;;;;;;;12.23;8.25;;;2.40;99.90;;;;;;5050855;28;20413;-55
2022/03/07 00:06:29;;;;;;;11.45;8.30;;;2.40;99.90;;;;;;5049995;28;20055;-55
2022/03/07 00:08:55;;;;;;;12.52;8.38;;;2.40;99.90;;;;;;5050547;28;20482;-56
2022/03/07 00:11:21;;;;;;;16.30;8.43;;;2.30;99.90;;;;;;5050960;28;20059;-56
2022/03/07 00:13:47;;;;;;;13.07;8.23;;;2.30;99.90;;;;;;5049575;28;20025;-56
2022/03/07 00:16:13;;;;;;;13.25;8.25;;;2.30;99.90;;;;;;5050291;28;20056;-56
2022/03/07 00:18:39;;;;;;;12.10;8.32;;;2.30;99.90;;;;;;5050582;28;20021;-56
2022/03/07 00:21:06;;;;;;;12.73;8.50;;;2.30;99.90;;;;;;5050648;28;20056;-56
2022/03/07 00:23:32;;;;;;;14.15;8.57;;;2.30;99.90;;;;;;5050659;28;20078;-56
2022/03/07 00:25:58;;;;;;;15.90;9.23;;;2.20;99.90;;;;;;5050680;28;20621;-56
2022/03/07 00:28:23;;;;;;;14.77;8.48;;;2.20;99.90;;;;;;5050250;28;20048;-56
2022/03/07 00:30:49;;;;;;;12.98;8.45;;;2.30;99.90;;;;;;5050428;28;20043;-56
2022/03/07 00:33:16;;;;;;;13.40;8.23;;;2.20;99.90;;;;;;5050384;28;20025;-56
2022/03/07 00:35:42;;;;;;;11.82;8.43;;;2.20;99.90;;;;;;5050291;28;20103;-56
2022/03/07 00:38:08;;;;;;;11.60;8.48;;;2.10;99.90;;;;;;5048917;28;20638;-55
2022/03/07 00:40:33;;;;;;;12.57;8.68;;;2.10;99.90;;;;;;5050263;28;20024;-56
2022/03/07 00:42:59;;;;;;;13.43;8.52;;;2.10;99.90;;;;;;5050427;28;20025;-55
2022/03/07 00:45:25;;;;;;;12.45;8.40;;;2.10;99.90;;;;;;5050129;28;20021;-56
2022/03/07 00:47:51;;;;;;;11.57;8.10;;;2.10;99.90;;;;;;5050802;28;20047;-56
2022/03/07 00:50:16;;;;;;;12.90;8.38;;;2.00;99.90;;;;;;5050386;28;20037;-55
2022/03/07 00:52:42;;;;;;;13.93;8.57;;;2.00;99.90;;;;;;5049905;28;20082;-55
2022/03/07 00:55:08;;;;;;;12.95;8.27;;;2.00;99.90;;;;;;5049224;28;20125;-55
2022/03/07 00:57:34;;;;;;;18.10;9.23;;;1.90;99.90;;;;;;5050455;28;20521;-56
2022/03/07 01:00:00;;;;;;;13.95;8.73;;;1.90;99.90;;;;;;5050272;28;20055;-56
2022/03/07 01:02:25;;;;;;;14.05;8.98;;;1.90;99.90;;;;;;5050146;28;20013;-56
2022/03/07 01:04:51;;;;;;;11.93;9.00;;;1.90;99.90;;;;;;5050373;28;20405;-56
2022/03/07 01:07:17;;;;;;;16.35;8.98;;;1.90;99.90;;;;;;5050084;28;20029;-56
2022/03/07 01:09:42;;;;;;;16.13;9.45;;;1.90;99.90;;;;;;5050084;28;20067;-56
2022/03/07 01:12:08;;;;;;;11.55;8.48;;;1.80;99.90;;;;;;5050068;28;20036;-56
2022/03/07 01:14:35;;;;;;;15.00;9.23;;;1.80;99.90;;;;;;5049885;28;20256;-56
2022/03/07 01:17:00;;;;;;;11.23;8.80;;;1.90;99.90;;;;;;5050119;28;20418;-56
2022/03/07 01:19:26;;;;;;;11.57;8.55;;;1.80;99.90;;;;;;5049821;28;20017;-56
2022/03/07 01:21:51;;;;;;;12.73;9.75;;;1.70;99.90;;;;;;5050103;28;20024;-56
2022/03/07 01:24:20;;;;;;;15.45;9.75;;;1.60;99.90;;;;;;5049733;28;20029;-56
2022/03/07 01:26:46;;;;;;;14.65;9.45;;;1.60;99.90;;;;;;5052813;28;20054;-56
2022/03/07 01:29:11;;;;;;;12.63;9.68;;;1.60;99.90;;;;;;5053715;28;20543;-56
2022/03/07 01:31:37;;;;;;;14.93;10.00;;;1.60;99.90;;;;;;5053427;28;20440;-56
2022/03/07 01:34:03;;;;;;;17.15;9.63;;;1.60;99.90;;;;;;5053293;28;20033;-56
2022/03/07 01:36:28;;;;;;;15.70;10.00;;;1.60;99.90;;;;;;5052118;28;20024;-56
2022/03/07 01:38:54;;;;;;;13.88;9.85;;;1.60;99.90;;;;;;5053311;28;20490;-56
2022/03/07 01:41:20;;;;;;;13.80;10.07;;;1.60;99.90;;;;;;5052945;28;20095;-56
2022/03/07 01:43:46;;;;;;;12.48;9.48;;;1.60;99.90;;;;;;5053684;28;20072;-56
2022/03/07 01:46:11;;;;;;;14.93;10.32;;;1.60;99.90;;;;;;5053195;28;20148;-56
2022/03/07 01:48:37;;;;;;;15.05;9.68;;;1.50;99.90;;;;;;5053125;28;20021;-56
2022/03/07 01:51:03;;;;;;;14.02;9.88;;;1.50;99.90;;;;;;5052960;28;20510;-56
2022/03/07 01:53:29;;;;;;;14.13;9.45;;;1.50;99.90;;;;;;5053562;28;20108;-56
2022/03/07 01:55:55;;;;;;;15.18;10.27;;;1.50;99.90;;;;;;5052924;28;20454;-56
2022/03/07 01:58:22;;;;;;;14.50;10.18;;;1.40;99.90;;;;;;5052959;28;20078;-56
2022/03/07 02:00:50;;;;;;;14.23;10.30;;;1.50;99.90;;;;;;5053286;28;20070;-56
2022/03/07 02:03:16;;;;;;;15.45;10.27;;;1.50;99.90;;;;;;5051443;28;20021;-56
2022/03/07 02:05:45;;;;;;;16.20;11.23;;;1.40;99.90;;;;;;5052080;28;20031;-56
2022/03/07 02:08:11;;;;;;;15.13;10.32;;;1.40;99.90;;;;;;5052939;28;20426;-56
2022/03/07 02:10:37;;;;;;;16.15;10.02;;;1.40;99.90;;;;;;5052492;28;20124;-56
2022/03/07 02:13:13;;;;;;;17.52;10.63;;;1.30;99.90;;;;;;5052964;28;20036;-56
2022/03/07 02:15:39;;;;;;;15.65;10.85;;;1.30;99.90;;;;;;5052821;28;20021;-56
2022/03/07 02:18:04;;;;;;;17.05;10.57;;;1.30;99.90;;;;;;5052571;28;20078;-56
2022/03/07 02:20:30;;;;;;;18.42;10.27;;;1.30;99.90;;;;;;5052294;28;20021;-56
2022/03/07 02:22:56;;;;;;;19.65;11.18;;;1.30;99.90;;;;;;5052839;28;20017;-56
2022/03/07 02:25:21;;;;;;;20.15;11.15;;;1.20;99.90;;;;;;5052888;28;20021;-56
2022/03/07 02:27:47;;;;;;;15.65;10.77;;;1.30;99.90;;;;;;5052724;28;20024;-56
2022/03/07 02:30:13;;;;;;;20.45;11.68;;;1.20;99.90;;;;;;5052626;28;20029;-56
2022/03/07 02:32:41;;;;;;;16.77;11.07;;;1.20;99.90;;;;;;5051880;28;20099;-56
2022/03/07 02:35:08;;;;;;;19.08;10.57;;;1.20;99.90;;;;;;5052178;28;20108;-56
2022/03/07 02:37:33;;;;;;;16.65;11.85;;;1.10;99.90;;;;;;5051167;28;20025;-56
2022/03/07 02:39:59;;;;;;;18.95;11.48;;;1.10;99.90;;;;;;5050713;28;20032;-56
2022/03/07 02:42:25;;;;;;;19.23;12.02;;;1.10;99.90;;;;;;5051967;28;20555;-56
2022/03/07 02:44:50;;;;;;;19.98;11.60;;;1.10;99.90;;;;;;5052579;28;20124;-56
2022/03/07 02:47:16;;;;;;;16.67;11.43;;;1.10;99.90;;;;;;5051849;28;20104;-56
2022/03/07 02:49:42;;;;;;;18.17;12.20;;;1.10;99.90;;;;;;5051252;28;20123;-56
2022/03/07 02:52:08;;;;;;;21.23;13.02;;;1.10;99.90;;;;;;5051708;28;20032;-56
2022/03/07 02:54:34;;;;;;;18.50;12.10;;;1.10;99.90;;;;;;5051705;28;20037;-56
2022/03/07 02:56:59;;;;;;;18.50;11.85;;;1.10;99.90;;;;;;5051550;28;20021;-56
2022/03/07 02:59:25;;;;;;;17.02;11.80;;;1.10;99.90;;;;;;5051589;28;20074;-56
2022/03/07 03:01:51;;;;;;;21.40;12.73;;;1.10;99.90;;;;;;5051546;28;20386;-56
2022/03/07 03:04:16;;;;;;;17.75;11.30;;;1.10;99.90;;;;;;5051563;28;20033;-56
2022/03/07 03:06:42;;;;;;;15.35;10.57;;;1.10;99.90;;;;;;5051533;28;20032;-56
2022/03/07 03:09:08;;;;;;;15.40;10.77;;;1.10;99.90;;;;;;5050027;28;20029;-56
2022/03/07 03:11:34;;;;;;;17.73;11.70;;;1.10;99.90;;;;;;5051610;28;20127;-56
2022/03/07 03:14:00;;;;;;;16.58;11.35;;;1.10;99.90;;;;;;5051622;28;20063;-56
2022/03/07 03:16:25;;;;;;;16.38;10.65;;;1.00;99.90;;;;;;5051327;28;20457;-56
2022/03/07 03:18:51;;;;;;;14.10;10.90;;;1.00;99.90;;;;;;5051396;28;20394;-56
2022/03/07 03:21:20;;;;;;;17.45;11.32;;;1.00;99.90;;;;;;5051551;28;20078;-56
2022/03/07 03:23:47;;;;;;;19.25;11.68;;;1.00;99.90;;;;;;5051556;28;20107;-56
2022/03/07 03:26:13;;;;;;;15.52;11.32;;;1.00;99.90;;;;;;5051055;28;20025;-56
2022/03/07 03:28:38;;;;;;;18.23;11.25;;;1.00;99.90;;;;;;5050667;28;20039;-56
2022/03/07 03:31:04;;;;;;;16.17;11.35;;;1.00;99.90;;;;;;5051055;28;20040;-56
2022/03/07 03:33:29;;;;;;;21.30;11.70;;;1.00;99.90;;;;;;5049702;28;20155;-56
2022/03/07 03:35:55;;;;;;;21.02;11.90;;;1.00;99.90;;;;;;5050798;28;20116;-56
2022/03/07 03:38:22;;;;;;;18.10;11.52;;;1.00;99.90;;;;;;5051033;28;20103;-56
2022/03/07 03:40:47;;;;;;;15.13;11.13;;;1.00;99.90;;;;;;5050931;28;20021;-56
2022/03/07 03:43:13;;;;;;;18.27;11.55;;;0.90;99.90;;;;;;5051055;28;20033;-56
2022/03/07 03:45:39;;;;;;;17.25;11.80;;;0.90;99.90;;;;;;5051082;28;20472;-56
2022/03/07 03:48:05;;;;;;;16.52;10.85;;;0.90;99.90;;;;;;5051364;28;20041;-56
2022/03/07 03:50:31;;;;;;;21.60;11.77;;;0.90;99.90;;;;;;5050916;28;20441;-57
2022/03/07 03:52:56;;;;;;;20.33;11.77;;;0.90;99.90;;;;;;5051064;28;20028;-56
2022/03/07 03:55:22;;;;;;;17.30;11.23;;;0.90;99.90;;;;;;5050959;28;20028;-56
2022/03/07 03:57:48;;;;;;;17.60;11.75;;;0.90;99.90;;;;;;5050788;28;20025;-56
2022/03/07 04:00:16;;;;;;;15.23;11.25;;;0.90;99.90;;;;;;5050937;28;20075;-56
2022/03/07 04:02:42;;;;;;;19.33;11.45;;;0.90;99.90;;;;;;5050795;28;20065;-56
2022/03/07 04:05:10;;;;;;;14.30;11.43;;;0.90;99.90;;;;;;5050838;28;20085;-56
2022/03/07 04:07:36;;;;;;;17.63;11.35;;;0.90;99.90;;;;;;5051238;28;20028;-56
2022/03/07 04:10:02;;;;;;;17.42;11.18;;;0.80;99.90;;;;;;5050030;28;20017;-55
2022/03/07 04:12:27;;;;;;;17.88;11.73;;;0.80;99.90;;;;;;5050859;28;20477;-55
2022/03/07 04:14:53;;;;;;;19.80;12.30;;;0.80;99.90;;;;;;5050655;28;20029;-56
2022/03/07 04:17:19;;;;;;;21.05;11.70;;;0.80;99.90;;;;;;5049359;28;20021;-56
2022/03/07 04:19:47;;;;;;;20.98;12.30;;;0.80;99.90;;;;;;5050440;28;20025;-55
2022/03/07 04:22:13;;;;;;;15.05;11.82;;;0.80;99.90;;;;;;5050413;28;20029;-56
2022/03/07 04:24:39;;;;;;;18.35;12.05;;;0.80;99.90;;;;;;5049611;28;20395;-56
2022/03/07 04:27:05;;;;;;;17.02;11.98;;;0.70;99.90;;;;;;5050547;28;20021;-55
2022/03/07 04:29:30;;;;;;;18.55;11.93;;;0.70;99.90;;;;;;5050301;28;20029;-55
2022/03/07 04:31:56;;;;;;;17.95;12.50;;;0.80;99.90;;;;;;5050328;28;20045;-55
2022/03/07 04:34:22;;;;;;;21.70;12.60;;;0.70;99.90;;;;;;5050600;28;20056;-55
2022/03/07 04:36:50;;;;;;;19.38;11.88;;;0.70;99.90;;;;;;5050281;28;20064;-55
2022/03/07 04:39:16;;;;;;;18.70;11.95;;;0.70;99.90;;;;;;5049037;28;20071;-55
2022/03/07 04:41:44;;;;;;;17.25;12.43;;;0.70;99.90;;;;;;5050312;28;20037;-56
2022/03/07 04:44:10;;;;;;;17.45;12.02;;;0.70;99.90;;;;;;5050523;28;20053;-56
2022/03/07 04:46:35;;;;;;;17.55;12.15;;;0.60;99.90;;;;;;5050262;28;20060;-56
2022/03/07 04:49:01;;;;;;;18.77;11.85;;;0.60;99.90;;;;;;5050074;28;20024;-56
2022/03/07 04:51:27;;;;;;;15.48;11.55;;;0.60;99.90;;;;;;5049841;28;20060;-57
2022/03/07 04:53:53;;;;;;;18.63;11.68;;;0.60;99.90;;;;;;5050218;28;20502;-56
2022/03/07 04:56:19;;;;;;;18.73;12.35;;;0.60;99.90;;;;;;5049914;28;20067;-56
2022/03/07 04:58:44;;;;;;;24.13;12.85;;;0.60;99.90;;;;;;5050099;28;20021;-56
2022/03/07 05:01:10;;;;;;;16.35;12.02;;;0.50;99.90;;;;;;5053535;28;20063;-56
2022/03/07 05:03:36;;;;;;;18.23;12.65;;;0.50;99.90;;;;;;5053780;28;20029;-56
2022/03/07 05:06:02;;;;;;;28.10;13.25;;;0.50;99.90;;;;;;5053683;28;20032;-56
2022/03/07 05:08:27;;;;;;;18.35;12.50;;;0.50;99.90;;;;;;5054150;28;20025;-56
2022/03/07 05:10:53;;;;;;;15.98;11.73;;;0.50;99.90;;;;;;5053895;28;20279;-56
2022/03/07 05:13:19;;;;;;;18.67;11.77;;;0.50;99.90;;;;;;5053908;28;20055;-56
2022/03/07 05:15:47;;;;;;;20.20;13.07;;;0.50;99.90;;;;;;5053511;28;20071;-56
2022/03/07 05:18:14;;;;;;;33.20;14.15;;;0.60;99.90;;;;;;5052291;28;20081;-56
2022/03/07 05:20:40;;;;;;;20.80;14.15;;;0.60;99.90;;;;;;5053721;28;20497;-56
2022/03/07 05:23:05;;;;;;;19.50;13.57;;;0.60;99.90;;;;;;5053499;28;20021;-58
2022/03/07 05:25:31;;;;;;;20.27;13.02;;;0.50;99.90;;;;;;5053809;28;20025;-56
2022/03/07 05:27:57;;;;;;;22.75;14.55;;;0.60;99.90;;;;;;5053798;28;20563;-55
2022/03/07 05:30:23;;;;;;;21.00;14.35;;;0.60;99.90;;;;;;5053900;28;20055;-56
2022/03/07 05:32:53;;;;;;;24.83;14.20;;;0.40;99.90;;;;;;5052530;28;20056;-55
2022/03/07 05:35:21;;;;;;;30.45;14.98;;;0.50;99.90;;;;;;5053530;28;20375;-55
2022/03/07 05:37:47;;;;;;;27.02;14.45;;;0.40;99.90;;;;;;5053744;28;20112;-55
2022/03/07 05:40:13;;;;;;;25.70;15.18;;;0.30;99.90;;;;;;5053503;28;20100;-55
2022/03/07 05:42:46;;;;;;;61.15;16.13;;;0.20;99.90;;;;;;5053233;28;20023;-55
2022/03/07 05:45:13;;;;;;;24.80;15.68;;;0.10;99.90;;;;;;5053979;28;20028;-55
2022/03/07 05:47:39;;;;;;;22.40;14.60;;;0.10;99.90;;;;;;5053322;28;20025;-55
2022/03/07 05:50:08;;;;;;;30.42;14.93;;;0.20;99.90;;;;;;5052876;28;20047;-55
2022/03/07 05:52:36;;;;;;;24.05;15.02;;;0.20;99.90;;;;;;5052900;28;20116;-55
2022/03/07 05:55:04;;;;;;;22.95;14.70;;;0.20;99.90;;;;;;5053135;28;20029;-55
2022/03/07 05:57:29;;;;;;;27.38;15.93;;;0.20;99.90;;;;;;5052828;28;20497;-56
2022/03/07 05:59:55;;;;;;;31.55;16.40;;;0.10;99.90;;;;;;5052997;28;20021;-55
2022/03/07 06:02:20;;;;;;;31.13;15.75;;;0.10;99.90;;;;;;5052710;28;20021;-55
2022/03/07 06:04:46;;;;;;;46.30;17.63;;;0.10;99.90;;;;;;5052890;28;20031;-55
2022/03/07 06:07:12;;;;;;;26.05;16.15;;;0.10;99.90;;;;;;5052882;28;20028;-55
2022/03/07 06:09:37;;;;;;;27.48;16.35;;;0.10;99.90;;;;;;5052684;28;20025;-55
2022/03/07 06:12:03;;;;;;;29.67;17.58;;;0.00;99.90;;;;;;5051428;28;20561;-56
2022/03/07 06:14:29;;;;;;;28.92;16.55;;;-0.10;99.90;;;;;;5052701;28;20268;-56
2022/03/07 06:16:54;;;;;;;34.20;16.73;;;-0.10;99.90;;;;;;5051879;28;20179;-56
2022/03/07 06:19:20;;;;;;;33.35;16.55;;;-0.10;99.90;;;;;;5051987;28;20025;-56
2022/03/07 06:21:46;;;;;;;30.80;16.15;;;-0.10;99.90;;;;;;5051989;28;20025;-56
2022/03/07 06:24:11;;;;;;;37.90;18.58;;;-0.10;99.90;;;;;;5052039;28;20020;-56
2022/03/07 06:26:37;;;;;;;29.58;17.02;;;0.00;99.90;;;;;;5051950;28;20029;-56
2022/03/07 06:29:03;;;;;;;53.10;17.20;;;0.20;99.90;;;;;;5052288;28;20029;-56
2022/03/07 06:31:29;;;;;;;27.25;16.55;;;0.30;99.90;;;;;;5052533;28;20052;-56
2022/03/07 06:33:55;;;;;;;32.35;17.17;;;0.40;99.90;;;;;;5062326;28;20017;-56
2022/03/07 06:36:20;;;;;;;34.42;17.13;;;0.30;99.90;;;;;;5069046;28;20060;-56
2022/03/07 06:38:46;;;;;;;42.30;18.50;;;0.10;99.90;;;;;;5068048;28;20462;-56
2022/03/07 06:41:11;;;;;;;34.85;16.83;;;0.00;99.90;;;;;;5052320;28;20390;-56
2022/03/07 06:43:38;;;;;;;27.23;16.73;;;0.00;99.90;;;;;;5052396;28;20025;-56
2022/03/07 06:46:04;;;;;;;26.08;17.10;;;0.00;99.90;;;;;;5049495;28;20057;-56
2022/03/07 06:48:30;;;;;;;27.05;17.38;;;0.20;99.90;;;;;;5049830;28;20513;-56
2022/03/07 06:50:56;;;;;;;28.48;17.75;;;0.30;99.90;;;;;;5051588;28;20032;-56
2022/03/07 06:53:21;;;;;;;31.55;17.55;;;0.30;99.90;;;;;;5050650;28;20059;-56
2022/03/07 06:55:47;;;;;;;27.50;16.73;;;0.30;99.90;;;;;;5048359;28;20104;-56
2022/03/07 06:58:13;;;;;;;27.15;17.88;;;0.30;99.90;;;;;;5049725;28;20574;-56
2022/03/07 07:00:38;;;;;;;32.13;17.85;;;0.30;99.90;;;;;;5040526;28;20083;-56
2022/03/07 07:03:05;;;;;;;37.15;18.27;;;0.40;99.90;;;;;;5047187;28;20647;-56
2022/03/07 07:05:32;;;;;;;31.55;16.90;;;0.40;99.90;;;;;;5049964;28;20531;-56
2022/03/07 07:07:58;;;;;;;26.48;17.02;;;0.40;99.90;;;;;;5050200;28;20110;-56
2022/03/07 07:10:25;;;;;;;33.15;17.70;;;0.50;99.90;;;;;;5047233;28;20040;-56
2022/03/07 07:12:51;;;;;;;27.75;17.75;;;0.50;99.90;;;;;;5043656;28;20051;-56
2022/03/07 07:15:17;;;;;;;42.38;19.50;;;0.50;99.90;;;;;;5036686;28;20167;-55
2022/03/07 07:17:43;;;;;;;33.83;18.90;;;0.60;99.90;;;;;;5041648;28;20017;-56
2022/03/07 07:20:11;;;;;;;36.78;17.85;;;0.60;99.90;;;;;;5043153;28;20032;-56
2022/03/07 07:22:37;;;;;;;25.17;16.58;;;0.60;99.90;;;;;;5034796;28;20521;-55
2022/03/07 07:25:04;;;;;;;26.80;16.55;;;0.80;99.90;;;;;;5042183;28;20031;-56
2022/03/07 07:27:30;;;;;;;28.33;16.77;;;0.90;99.90;;;;;;5044721;28;20036;-56
2022/03/07 07:29:56;;;;;;;25.95;16.42;;;1.00;99.90;;;;;;5041469;28;20029;-55
2022/03/07 07:32:21;;;;;;;25.10;16.52;;;1.00;99.90;;;;;;5034115;28;20449;-56
2022/03/07 07:34:48;;;;;;;32.10;17.15;;;1.00;99.90;;;;;;5039157;28;20051;-56
2022/03/07 07:37:13;;;;;;;25.52;16.60;;;1.20;99.90;;;;;;5036788;28;20064;-56
2022/03/07 07:39:39;;;;;;;23.92;16.25;;;1.20;99.90;;;;;;5040535;28;20154;-56
2022/03/07 07:42:05;;;;;;;25.23;15.48;;;1.20;99.90;;;;;;5038422;28;20051;-56
2022/03/07 07:44:30;;;;;;;23.92;15.68;;;1.30;99.90;;;;;;5034681;28;20392;-56
2022/03/07 07:46:56;;;;;;;27.30;16.67;;;1.40;99.90;;;;;;5037320;28;20111;-56
2022/03/07 07:49:24;;;;;;;23.70;16.08;;;1.40;99.90;;;;;;5031930;28;20039;-56
2022/03/07 07:51:50;;;;;;;23.55;15.93;;;1.40;99.90;;;;;;5036937;28;20021;-56
2022/03/07 07:54:16;;;;;;;23.67;15.48;;;1.60;99.90;;;;;;5033693;28;20036;-56
2022/03/07 07:56:42;;;;;;;21.42;15.05;;;1.60;99.90;;;;;;5034532;28;20036;-56
2022/03/07 07:59:08;;;;;;;30.88;15.18;;;1.80;99.90;;;;;;5033028;28;20382;-56
2022/03/07 08:01:33;;;;;;;23.48;14.90;;;1.70;99.90;;;;;;5037138;28;20025;-56
2022/03/07 08:03:59;;;;;;;23.63;15.30;;;1.70;99.90;;;;;;5032072;28;20037;-56
2022/03/07 08:06:25;;;;;;;20.08;14.48;;;1.80;99.90;;;;;;5035003;28;20040;-56
2022/03/07 08:08:50;;;;;;;20.10;13.98;;;1.80;99.90;;;;;;5034288;28;20029;-56
2022/03/07 08:11:16;;;;;;;22.92;13.82;;;1.90;99.90;;;;;;5037505;28;20489;-56
2022/03/07 08:13:42;;;;;;;24.52;14.60;;;2.00;99.90;;;;;;5035178;28;20115;-56
2022/03/07 08:16:08;;;;;;;19.65;12.70;;;2.00;99.90;;;;;;5043517;28;20028;-56
2022/03/07 08:18:34;;;;;;;18.25;12.23;;;1.90;99.90;;;;;;5058201;28;20021;-56
2022/03/07 08:21:02;;;;;;;25.17;11.73;;;2.30;99.90;;;;;;5045589;28;20029;-56
2022/03/07 08:23:28;;;;;;;16.25;10.50;;;3.30;99.90;;;;;;5039268;28;20044;-57
2022/03/07 08:25:53;;;;;;;13.82;9.80;;;4.20;99.90;;;;;;5042207;28;20377;-56
2022/03/07 08:28:19;;;;;;;12.60;9.55;;;4.90;99.90;;;;;;5043760;28;20114;-55
2022/03/07 08:30:45;;;;;;;21.08;9.55;;;5.50;99.90;;;;;;5037699;28;20033;-55
2022/03/07 08:33:11;;;;;;;19.50;9.27;;;6.00;98.80;;;;;;5041360;28;20021;-55
2022/03/07 08:35:36;;;;;;;12.02;8.00;;;6.10;97.30;;;;;;5040349;28;20498;-55
2022/03/07 08:38:02;;;;;;;12.38;8.30;;;6.00;96.40;;;;;;5043449;28;21297;-56
2022/03/07 08:40:28;;;;;;;13.48;7.53;;;6.10;96.60;;;;;;5038713;28;20033;-56
2022/03/07 08:42:54;;;;;;;11.77;6.72;;;6.50;96.30;;;;;;5037269;28;20027;-56
2022/03/07 08:45:25;;;;;;;11.77;7.18;;;6.80;94.40;;;;;;5031568;28;20028;-56
2022/03/07 08:47:51;;;;;;;11.95;7.38;;;7.20;93.80;;;;;;5033173;28;20087;-56
2022/03/07 08:50:18;;;;;;;12.05;6.32;;;7.30;93.20;;;;;;5030893;28;20601;-56
2022/03/07 08:52:45;;;;;;;9.82;5.22;;;7.30;91.40;;;;;;5023118;28;20393;-56
2022/03/07 08:55:11;;;;;;;12.80;6.50;;;6.30;91.30;;;;;;5025343;28;20024;-56
2022/03/07 08:57:37;;;;;;;12.02;6.25;;;5.90;92.30;;;;;;5029161;28;20029;-56
2022/03/07 09:00:08;;;;;;;10.10;7.03;;;5.90;92.50;;;;;;5031086;28;20087;-56
2022/03/07 09:02:34;;;;;;;22.38;7.88;;;6.20;92.80;;;;;;5029959;28;20037;-56
2022/03/07 09:05:00;;;;;;;24.10;5.65;;;6.20;91.80;;;;;;5031411;28;20040;-57
2022/03/07 09:07:28;;;;;;;7.50;6.10;;;6.40;91.90;;;;;;5031037;28;20047;-56
2022/03/07 09:09:55;;;;;;;9.48;6.18;;;6.30;91.60;;;;;;5032330;28;20053;-57
2022/03/07 09:12:25;;;;;;;7.18;6.30;;;6.30;92.40;;;;;;5028822;28;20502;-56
2022/03/07 09:14:51;;;;;;;9.90;6.45;;;6.30;91.70;;;;;;5029255;28;20395;-55
2022/03/07 09:17:17;;;;;;;9.02;6.00;;;6.50;91.60;;;;;;5025596;28;21012;-56
2022/03/07 09:19:42;;;;;;;7.35;5.53;;;6.50;91.80;;;;;;5027933;28;20114;-57
2022/03/07 09:22:08;;;;;;;10.02;5.88;;;6.70;90.70;;;;;;5031401;28;20025;-57
2022/03/07 09:24:33;;;;;;;8.73;6.22;;;6.40;90.90;;;;;;5031954;28;20467;-57
2022/03/07 09:26:59;;;;;;;6.55;5.63;;;6.40;91.00;;;;;;5029227;28;20066;-56
2022/03/07 09:29:25;;;;;;;9.32;5.90;;;6.10;91.60;;;;;;5030612;28;20302;-57
2022/03/07 09:31:51;;;;;;;15.68;6.22;;;6.40;90.40;;;;;;5030721;28;20546;-56
2022/03/07 09:34:16;;;;;;;27.98;6.95;;;6.40;90.20;;;;;;5036398;28;20433;-56
2022/03/07 09:36:42;;;;;;;7.78;6.15;;;6.50;90.00;;;;;;5041705;28;20049;-58
2022/03/07 09:39:08;;;;;;;8.38;6.50;;;6.30;91.10;;;;;;5047232;28;20037;-56
2022/03/07 09:41:34;;;;;;;8.00;6.03;;;6.30;90.80;;;;;;5044431;28;20028;-57
2022/03/07 09:43:59;;;;;;;8.10;6.10;;;6.60;90.50;;;;;;5033340;28;20038;-56
2022/03/07 09:46:26;;;;;;;40.38;7.35;;;7.20;91.00;;;;;;5034565;28;20083;-57
2022/03/07 09:48:53;;;;;;;10.00;5.63;;;7.80;88.70;;;;;;5025776;28;20036;-56
2022/03/07 09:51:18;;;;;;;7.35;5.25;;;7.60;87.20;;;;;;5033199;28;20090;-56
2022/03/07 09:53:44;;;;;;;7.55;6.03;;;7.60;87.30;;;;;;5033377;28;20036;-56
2022/03/07 09:56:10;;;;;;;9.63;6.00;;;7.30;86.10;;;;;;5030882;28;20112;-56
2022/03/07 09:58:35;;;;;;;8.35;5.63;;;7.20;87.10;;;;;;5033815;28;20405;-57
2022/03/07 10:01:13;;;;;;;8.02;5.63;;;7.20;87.20;;;;;;5037387;28;20029;-57
2022/03/07 10:03:40;;;;;;;8.88;5.95;;;7.40;87.90;;;;;;5033307;28;21689;-57
2022/03/07 10:06:14;;;;;;;9.15;4.65;;;7.60;88.50;;;;;;5037666;28;20520;-56
2022/03/07 10:08:52;;;;;;;6.03;4.68;;;7.40;84.80;;;;;;5034231;28;20402;-56
2022/03/07 10:11:18;;;;;;;7.28;4.43;;;7.80;86.00;;;;;;5033111;28;20028;-57
2022/03/07 10:14:01;;;;;;;8.27;5.18;;;7.80;85.00;;;;;;5023654;28;20295;-57
2022/03/07 10:16:43;;;;;;;6.47;5.00;;;7.70;83.30;;;;;;5035429;28;20106;-57
2022/03/07 10:19:14;;;;;;;8.88;4.95;;;7.60;84.20;;;;;;5037636;28;20608;-57
2022/03/07 10:21:50;;;;;;;9.98;4.68;;;7.70;85.40;;;;;;5040103;28;20029;-57
2022/03/07 10:24:16;;;;;;;9.63;5.63;;;7.60;83.40;;;;;;5035064;28;20030;-56
2022/03/07 10:26:42;;;;;;;6.72;4.70;;;7.60;83.30;;;;;;5036310;28;20024;-57
2022/03/07 10:29:08;;;;;;;6.50;4.55;;;7.70;85.40;;;;;;5034939;28;20041;-57
2022/03/07 10:31:34;;;;;;;12.55;4.80;;;7.70;82.30;;;;;;5036369;28;20078;-57
2022/03/07 10:34:08;;;;;;;12.95;4.88;;;7.90;83.30;;;;;;5033121;28;20648;-57
2022/03/07 10:36:39;;;;;;;5.10;4.47;;;8.30;81.00;;;;;;5034041;28;20029;-57
2022/03/07 10:39:07;;;;;;;9.38;4.40;;;7.80;81.60;;;;;;5035320;28;20085;-56
2022/03/07 10:41:42;;;;;;;6.60;4.80;;;7.80;81.00;;;;;;5032480;28;20036;-57
2022/03/07 10:44:24;;;;;;;10.35;4.40;;;7.40;82.50;;;;;;5032134;28;20815;-57
2022/03/07 10:46:50;;;;;;;6.47;4.38;;;7.30;81.50;;;;;;5032058;28;20033;-57
2022/03/07 10:49:19;;;;;;;12.05;4.88;;;7.70;83.60;;;;;;5030384;28;20041;-56
2022/03/07 10:51:55;;;;;;;11.30;4.43;;;8.00;82.20;;;;;;5031450;28;20037;-58
2022/03/07 10:54:22;;;;;;;9.35;4.78;;;7.80;82.00;;;;;;5031028;28;20037;-57
2022/03/07 10:56:49;;;;;;;7.18;4.53;;;8.50;81.90;;;;;;5032129;28;20095;-57
2022/03/07 10:59:26;;;;;;;6.82;4.60;;;8.70;79.20;;;;;;5030589;28;20025;-57
2022/03/07 11:02:02;;;;;;;8.63;5.05;;;8.70;78.40;;;;;;5030989;28;20025;-56
2022/03/07 11:04:27;;;;;;;8.45;5.00;;;8.70;79.30;;;;;;5031499;28;20036;-57
2022/03/07 11:06:53;;;;;;;5.40;4.90;;;8.40;79.70;;;;;;5030280;28;20067;-57
2022/03/07 11:09:19;;;;;;;11.25;5.57;;;8.60;81.10;;;;;;5030952;28;20033;-57
2022/03/07 11:11:45;;;;;;;17.92;5.85;;;8.60;79.90;;;;;;5031695;28;20406;-58
2022/03/07 11:14:12;;;;;;;7.10;5.07;;;8.50;81.10;;;;;;5029529;28;20082;-57
2022/03/07 11:16:39;;;;;;;10.05;5.95;;;8.70;81.60;;;;;;5031698;28;20070;-57
2022/03/07 11:19:06;;;;;;;18.80;6.63;;;9.00;79.60;;;;;;5031575;28;20507;-57
2022/03/07 11:21:35;;;;;;;6.95;5.63;;;8.70;79.90;;;;;;5032476;28;20087;-57
2022/03/07 11:24:00;;;;;;;10.77;6.40;;;8.50;79.50;;;;;;5034281;28;20125;-57
2022/03/07 11:26:26;;;;;;;8.88;6.72;;;8.80;80.90;;;;;;5037049;28;20056;-59
2022/03/07 11:28:52;;;;;;;10.45;6.38;;;8.70;79.60;;;;;;5036931;28;20067;-57
2022/03/07 11:31:26;;;;;;;20.30;6.68;;;8.50;81.00;;;;;;5038062;28;20053;-57
2022/03/07 11:33:54;;;;;;;12.00;6.85;;;8.90;80.30;;;;;;5038172;28;20060;-58
2022/03/07 11:36:23;;;;;;;14.35;5.90;;;9.30;80.20;;;;;;5040679;28;20036;-57
2022/03/07 11:39:00;;;;;;;9.48;6.38;;;9.90;79.10;;;;;;5029632;28;20550;-57
2022/03/07 11:41:32;;;;;;;9.07;6.30;;;10.80;77.20;;;;;;5047084;28;20823;-57
2022/03/07 11:44:04;;;;;;;6.25;5.63;;;11.10;75.30;;;;;;5051409;28;20107;-57
2022/03/07 11:46:32;;;;;;;9.52;6.03;;;10.60;73.50;;;;;;5049938;28;20047;-57
2022/03/07 11:48:59;;;;;;;9.63;5.72;;;10.30;77.30;;;;;;5048224;28;20036;-57
2022/03/07 11:51:28;;;;;;;6.32;5.28;;;10.50;76.10;;;;;;5048516;28;20048;-57
2022/03/07 11:53:55;;;;;;;7.28;5.05;;;10.80;73.90;;;;;;5048690;28;20047;-57
2022/03/07 11:56:26;;;;;;;5.85;5.20;;;10.20;74.60;;;;;;5043918;28;20025;-57
2022/03/07 11:58:55;;;;;;;7.88;5.55;;;9.80;75.10;;;;;;5046057;28;20013;-57
2022/03/07 12:01:23;;;;;;;6.15;5.05;;;10.20;75.90;;;;;;5052662;28;20052;-57
2022/03/07 12:03:48;;;;;;;6.80;4.90;;;10.40;74.30;;;;;;5047650;28;20535;-56
2022/03/07 12:06:19;;;;;;;8.32;5.50;;;10.50;72.80;;;;;;5041985;28;20101;-56
2022/03/07 12:08:52;;;;;;;7.97;5.07;;;9.90;73.20;;;;;;5045941;28;20139;-56
2022/03/07 12:11:23;;;;;;;;;;;9.50;74.70;;;;;;5042177;28;20569;-56
2022/03/07 12:13:50;;;;;;;8.23;5.35;;;9.50;77.00;;;;;;5043059;28;20075;-57
2022/03/07 12:16:33;;;;;;;7.95;5.57;;;10.10;75.60;;;;;;5042273;28;20512;-56
2022/03/07 12:19:08;;;;;;;12.98;5.97;;;10.70;73.20;;;;;;5047837;28;20722;-56
2022/03/07 12:21:35;;;;;;;7.65;5.60;;;11.00;72.90;;;;;;5039326;28;20097;-56
2022/03/07 12:24:01;;;;;;;9.68;5.40;;;10.80;71.70;;;;;;5041703;28;20386;-56
2022/03/07 12:26:26;;;;;;;13.05;5.43;;;10.70;73.70;;;;;;5049678;28;20024;-56
2022/03/07 12:28:52;;;;;;;7.15;5.60;;;11.10;73.70;;;;;;5058889;28;20032;-57
2022/03/07 12:31:18;;;;;;;10.80;5.40;;;11.40;71.70;;;;;;5047008;28;20471;-56
2022/03/07 12:33:47;;;;;;;7.22;5.22;;;10.80;70.90;;;;;;5043878;28;20312;-56
2022/03/07 12:36:15;;;;;;;17.92;5.10;;;10.20;72.20;;;;;;5045615;28;20032;-55
2022/03/07 12:38:45;;;;;;;5.97;5.38;;;9.80;73.90;;;;;;5048510;28;20021;-55
2022/03/07 12:41:12;;;;;;;6.28;5.13;;;10.10;74.00;;;;;;5048648;28;20033;-56